sensor_id;sensor_type;location;lat;lon;timestamp;pressure;altitude;pressure_sealevel;temperature
13304;BMP280;6720;51.958;4.540;2022-12-07T00:01:28;101729.31;;;6.44
13304;BMP280;6720;51.958;4.540;2022-12-07T00:03:55;101734.63;;;6.53
13304;BMP280;6720;51.958;4.540;2022-12-07T00:06:26;101713.81;;;6.53
13304;BMP280;6720;51.958;4.540;2022-12-07T00:08:51;101721.75;;;6.62
13304;BMP280;6720;51.958;4.540;2022-12-07T00:11:18;101720.94;;;6.66
13304;BMP280;6720;51.958;4.540;2022-12-07T00:13:45;101706.09;;;6.59
13304;BMP280;6720;51.958;4.540;2022-12-07T00:16:17;101710.47;;;6.63
13304;BMP280;6720;51.958;4.540;2022-12-07T00:18:43;101717.38;;;6.61
13304;BMP280;6720;51.958;4.540;2022-12-07T00:21:15;101713.84;;;6.56
13304;BMP280;6720;51.958;4.540;2022-12-07T00:23:42;101711.16;;;6.49
13304;BMP280;6720;51.958;4.540;2022-12-07T00:26:12;101713.75;;;6.47
13304;BMP280;6720;51.958;4.540;2022-12-07T00:28:38;101708.44;;;6.41
13304;BMP280;6720;51.958;4.540;2022-12-07T00:31:07;101704.09;;;6.40
13304;BMP280;6720;51.958;4.540;2022-12-07T00:33:33;101693.59;;;6.33
13304;BMP280;6720;51.958;4.540;2022-12-07T00:35:59;101703.13;;;6.32
13304;BMP280;6720;51.958;4.540;2022-12-07T00:38:28;101703.97;;;6.30
13304;BMP280;6720;51.958;4.540;2022-12-07T00:40:56;101696.00;;;6.19
13304;BMP280;6720;51.958;4.540;2022-12-07T00:43:21;101705.47;;;6.16
13304;BMP280;6720;51.958;4.540;2022-12-07T00:45:47;101699.34;;;6.12
13304;BMP280;6720;51.958;4.540;2022-12-07T00:48:12;101699.34;;;6.09
13304;BMP280;6720;51.958;4.540;2022-12-07T00:50:38;101697.53;;;6.05
13304;BMP280;6720;51.958;4.540;2022-12-07T00:53:03;101694.72;;;5.90
13304;BMP280;6720;51.958;4.540;2022-12-07T00:55:33;101695.53;;;5.89
13304;BMP280;6720;51.958;4.540;2022-12-07T00:57:58;101698.81;;;5.79
13304;BMP280;6720;51.958;4.540;2022-12-07T01:00:23;101704.03;;;5.79
13304;BMP280;6720;51.958;4.540;2022-12-07T01:02:49;101704.75;;;5.72
13304;BMP280;6720;51.958;4.540;2022-12-07T01:05:14;101694.31;;;5.69
13304;BMP280;6720;51.958;4.540;2022-12-07T01:07:40;101709.00;;;5.67
13304;BMP280;6720;51.958;4.540;2022-12-07T01:10:06;101714.19;;;5.67
13304;BMP280;6720;51.958;4.540;2022-12-07T01:12:31;101711.56;;;5.64
13304;BMP280;6720;51.958;4.540;2022-12-07T01:14:57;101705.38;;;5.56
13304;BMP280;6720;51.958;4.540;2022-12-07T01:17:41;101701.84;;;5.54
13304;BMP280;6720;51.958;4.540;2022-12-07T01:20:07;101698.34;;;5.52
13304;BMP280;6720;51.958;4.540;2022-12-07T01:22:40;101701.84;;;5.54
13304;BMP280;6720;51.958;4.540;2022-12-07T01:25:06;101705.34;;;5.58
13304;BMP280;6720;51.958;4.540;2022-12-07T01:27:33;101709.50;;;5.45
13304;BMP280;6720;51.958;4.540;2022-12-07T01:30:00;101698.69;;;5.23
13304;BMP280;6720;51.958;4.540;2022-12-07T01:32:25;101699.47;;;5.19
13304;BMP280;6720;51.958;4.540;2022-12-07T01:34:51;101706.28;;;5.12
13304;BMP280;6720;51.958;4.540;2022-12-07T01:37:16;101701.94;;;5.11
13304;BMP280;6720;51.958;4.540;2022-12-07T01:39:41;101705.41;;;5.12
13304;BMP280;6720;51.958;4.540;2022-12-07T01:42:10;101703.59;;;5.08
13304;BMP280;6720;51.958;4.540;2022-12-07T01:47:54;101697.28;;;4.95
13304;BMP280;6720;51.958;4.540;2022-12-07T01:50:22;101702.59;;;5.01
13304;BMP280;6720;51.958;4.540;2022-12-07T01:52:50;101715.72;;;5.07
13304;BMP280;6720;51.958;4.540;2022-12-07T01:55:17;101719.22;;;5.11
13304;BMP280;6720;51.958;4.540;2022-12-07T01:57:48;101715.75;;;5.10
13304;BMP280;6720;51.958;4.540;2022-12-07T02:00:14;101709.59;;;5.05
13304;BMP280;6720;51.958;4.540;2022-12-07T02:02:56;101721.88;;;5.14
13304;BMP280;6720;51.958;4.540;2022-12-07T02:05:24;101691.44;;;5.05
13304;BMP280;6720;51.958;4.540;2022-12-07T02:07:52;101692.16;;;4.98
13304;BMP280;6720;51.958;4.540;2022-12-07T02:10:24;101701.09;;;5.12
13304;BMP280;6720;51.958;4.540;2022-12-07T02:13:14;101697.47;;;5.04
13304;BMP280;6720;51.958;4.540;2022-12-07T02:21:29;101688.72;;;4.99
13304;BMP280;6720;51.958;4.540;2022-12-07T02:29:27;101670.03;;;4.72
13304;BMP280;6720;51.958;4.540;2022-12-07T02:32:10;101651.78;;;4.66
13304;BMP280;6720;51.958;4.540;2022-12-07T02:34:57;101680.66;;;4.86
13304;BMP280;6720;51.958;4.540;2022-12-07T02:37:36;101686.81;;;4.89
13304;BMP280;6720;51.958;4.540;2022-12-07T02:42:36;101690.19;;;4.85
13304;BMP280;6720;51.958;4.540;2022-12-07T02:45:04;101668.53;;;4.83
13304;BMP280;6720;51.958;4.540;2022-12-07T02:47:31;101686.06;;;4.95
13304;BMP280;6720;51.958;4.540;2022-12-07T02:49:58;101681.63;;;4.89
13304;BMP280;6720;51.958;4.540;2022-12-07T02:52:24;101693.88;;;4.96
13304;BMP280;6720;51.958;4.540;2022-12-07T02:54:49;101688.69;;;4.96
13304;BMP280;6720;51.958;4.540;2022-12-07T02:57:26;101700.06;;;5.04
13304;BMP280;6720;51.958;4.540;2022-12-07T03:10:43;101708.44;;;4.91
13304;BMP280;6720;51.958;4.540;2022-12-07T03:13:57;101693.97;;;5.02
13304;BMP280;6720;51.958;4.540;2022-12-07T03:16:17;101698.31;;;5.02
13304;BMP280;6720;51.958;4.540;2022-12-07T03:18:51;101673.06;;;4.93
13304;BMP280;6720;51.958;4.540;2022-12-07T03:21:26;101668.72;;;4.94
13304;BMP280;6720;51.958;4.540;2022-12-07T03:23:58;101668.06;;;5.04
13304;BMP280;6720;51.958;4.540;2022-12-07T03:26:31;101681.09;;;5.07
13304;BMP280;6720;51.958;4.540;2022-12-07T03:29:01;101691.69;;;5.19
13304;BMP280;6720;51.958;4.540;2022-12-07T03:31:39;101666.56;;;5.16
13304;BMP280;6720;51.958;4.540;2022-12-07T03:34:26;101649.09;;;5.08
13304;BMP280;6720;51.958;4.540;2022-12-07T03:37:10;101675.47;;;5.30
13304;BMP280;6720;51.958;4.540;2022-12-07T03:39:45;101670.19;;;5.26
13304;BMP280;6720;51.958;4.540;2022-12-07T03:42:12;101638.03;;;5.18
13304;BMP280;6720;51.958;4.540;2022-12-07T03:44:39;101677.28;;;5.34
13304;BMP280;6720;51.958;4.540;2022-12-07T03:47:41;101676.31;;;5.29
13304;BMP280;6720;51.958;4.540;2022-12-07T03:53:22;101658.97;;;5.28
13304;BMP280;6720;51.958;4.540;2022-12-07T03:55:50;101664.16;;;5.28
13304;BMP280;6720;51.958;4.540;2022-12-07T03:58:18;101656.16;;;5.15
13304;BMP280;6720;51.958;4.540;2022-12-07T04:00:44;101665.75;;;5.20
13304;BMP280;6720;51.958;4.540;2022-12-07T04:03:10;101668.09;;;5.05
13304;BMP280;6720;51.958;4.540;2022-12-07T04:05:36;101665.25;;;4.93
13304;BMP280;6720;51.958;4.540;2022-12-07T04:08:01;101663.22;;;4.79
13304;BMP280;6720;51.958;4.540;2022-12-07T04:10:27;101658.06;;;4.80
13304;BMP280;6720;51.958;4.540;2022-12-07T04:12:52;101665.81;;;4.77
13304;BMP280;6720;51.958;4.540;2022-12-07T04:15:17;101644.88;;;4.68
13304;BMP280;6720;51.958;4.540;2022-12-07T04:17:43;101661.53;;;4.79
13304;BMP280;6720;51.958;4.540;2022-12-07T04:20:09;101651.22;;;4.82
13304;BMP280;6720;51.958;4.540;2022-12-07T04:22:34;101652.09;;;4.84
13304;BMP280;6720;51.958;4.540;2022-12-07T04:25:00;101662.66;;;4.93
13304;BMP280;6720;51.958;4.540;2022-12-07T04:27:25;101652.31;;;4.95
13304;BMP280;6720;51.958;4.540;2022-12-07T04:29:51;101665.56;;;5.08
13304;BMP280;6720;51.958;4.540;2022-12-07T04:32:16;101655.97;;;5.04
13304;BMP280;6720;51.958;4.540;2022-12-07T04:34:42;101656.69;;;4.97
13304;BMP280;6720;51.958;4.540;2022-12-07T04:37:07;101648.97;;;5.00
13304;BMP280;6720;51.958;4.540;2022-12-07T04:39:33;101655.91;;;5.01
13304;BMP280;6720;51.958;4.540;2022-12-07T04:41:59;101647.16;;;4.96
13304;BMP280;6720;51.958;4.540;2022-12-07T04:44:25;101648.81;;;4.93
13304;BMP280;6720;51.958;4.540;2022-12-07T04:46:51;101647.03;;;4.90
13304;BMP280;6720;51.958;4.540;2022-12-07T04:49:17;101643.56;;;4.90
13304;BMP280;6720;51.958;4.540;2022-12-07T04:51:43;101641.56;;;4.75
13304;BMP280;6720;51.958;4.540;2022-12-07T04:54:09;101639.91;;;4.80
13304;BMP280;6720;51.958;4.540;2022-12-07T04:56:35;101637.28;;;4.79
13304;BMP280;6720;51.958;4.540;2022-12-07T04:59:01;101638.88;;;4.71
13304;BMP280;6720;51.958;4.540;2022-12-07T05:01:27;101648.50;;;4.76
13304;BMP280;6720;51.958;4.540;2022-12-07T05:03:52;101633.75;;;4.74
13304;BMP280;6720;51.958;4.540;2022-12-07T05:06:18;101643.38;;;4.79
13304;BMP280;6720;51.958;4.540;2022-12-07T05:08:44;101639.91;;;4.80
13304;BMP280;6720;51.958;4.540;2022-12-07T05:11:10;101637.34;;;4.82
13304;BMP280;6720;51.958;4.540;2022-12-07T05:13:54;101634.69;;;4.77
13304;BMP280;6720;51.958;4.540;2022-12-07T05:16:20;101625.94;;;4.72
13304;BMP280;6720;51.958;4.540;2022-12-07T05:18:45;101638.28;;;4.84
13304;BMP280;6720;51.958;4.540;2022-12-07T05:21:10;101629.53;;;4.80
13304;BMP280;6720;51.958;4.540;2022-12-07T05:23:36;101633.78;;;4.75
13304;BMP280;6720;51.958;4.540;2022-12-07T05:26:01;101634.69;;;4.77
13304;BMP280;6720;51.958;4.540;2022-12-07T05:28:27;101629.38;;;4.71
13304;BMP280;6720;51.958;4.540;2022-12-07T05:30:52;101640.59;;;4.70
13304;BMP280;6720;51.958;4.540;2022-12-07T05:33:17;101632.75;;;4.67
13304;BMP280;6720;51.958;4.540;2022-12-07T05:35:43;101636.22;;;4.66
13304;BMP280;6720;51.958;4.540;2022-12-07T05:38:08;101626.66;;;4.65
13304;BMP280;6720;51.958;4.540;2022-12-07T05:40:33;101621.25;;;4.53
13304;BMP280;6720;51.958;4.540;2022-12-07T05:42:59;101634.38;;;4.61
13304;BMP280;6720;51.958;4.540;2022-12-07T05:45:24;101630.09;;;4.64
13304;BMP280;6720;51.958;4.540;2022-12-07T05:47:49;101624.78;;;4.57
13304;BMP280;6720;51.958;4.540;2022-12-07T05:50:15;101616.84;;;4.49
13304;BMP280;6720;51.958;4.540;2022-12-07T05:52:41;101632.56;;;4.57
13304;BMP280;6720;51.958;4.540;2022-12-07T05:55:06;101618.66;;;4.53
13304;BMP280;6720;51.958;4.540;2022-12-07T05:57:32;101618.53;;;4.47
13304;BMP280;6720;51.958;4.540;2022-12-07T05:59:57;101631.50;;;4.47
13304;BMP280;6720;51.958;4.540;2022-12-07T06:02:23;101630.63;;;4.47
13304;BMP280;6720;51.958;4.540;2022-12-07T06:04:48;101626.22;;;4.43
13304;BMP280;6720;51.958;4.540;2022-12-07T06:07:15;101621.84;;;4.40
13304;BMP280;6720;51.958;4.540;2022-12-07T06:09:41;101634.06;;;4.46
13304;BMP280;6720;51.958;4.540;2022-12-07T06:12:09;101620.06;;;4.39
13304;BMP280;6720;51.958;4.540;2022-12-07T06:14:53;101629.63;;;4.40
13304;BMP280;6720;51.958;4.540;2022-12-07T06:17:19;101622.59;;;4.35
13304;BMP280;6720;51.958;4.540;2022-12-07T06:19:44;101628.63;;;4.35
13304;BMP280;6720;51.958;4.540;2022-12-07T06:22:10;101632.09;;;4.34
13304;BMP280;6720;51.958;4.540;2022-12-07T06:24:37;101628.56;;;4.31
13304;BMP280;6720;51.958;4.540;2022-12-07T06:27:03;101637.16;;;4.30
13304;BMP280;6720;51.958;4.540;2022-12-07T06:29:28;101627.63;;;4.29
13304;BMP280;6720;51.958;4.540;2022-12-07T06:31:53;101621.59;;;4.28
13304;BMP280;6720;51.958;4.540;2022-12-07T06:34:20;101637.28;;;4.36
13304;BMP280;6720;51.958;4.540;2022-12-07T06:36:48;101640.78;;;4.36
13304;BMP280;6720;51.958;4.540;2022-12-07T06:39:18;101626.72;;;4.25
13304;BMP280;6720;51.958;4.540;2022-12-07T06:41:43;101634.44;;;4.24
13304;BMP280;6720;51.958;4.540;2022-12-07T06:44:09;101635.28;;;4.21
13304;BMP280;6720;51.958;4.540;2022-12-07T06:46:36;101636.94;;;4.19
13304;BMP280;6720;51.958;4.540;2022-12-07T06:49:02;101630.91;;;4.19
13304;BMP280;6720;51.958;4.540;2022-12-07T06:51:27;101637.81;;;4.20
13304;BMP280;6720;51.958;4.540;2022-12-07T06:53:53;101630.88;;;4.17
13304;BMP280;6720;51.958;4.540;2022-12-07T06:56:19;101635.19;;;4.18
13304;BMP280;6720;51.958;4.540;2022-12-07T06:58:45;101631.69;;;4.16
13304;BMP280;6720;51.958;4.540;2022-12-07T07:01:15;101642.25;;;4.25
13304;BMP280;6720;51.958;4.540;2022-12-07T07:03:41;101642.38;;;4.31
13304;BMP280;6720;51.958;4.540;2022-12-07T07:06:07;101635.38;;;4.27
13304;BMP280;6720;51.958;4.540;2022-12-07T07:08:33;101647.84;;;4.43
13304;BMP280;6720;51.958;4.540;2022-12-07T07:10:59;101648.75;;;4.47
13304;BMP280;6720;51.958;4.540;2022-12-07T07:13:24;101646.91;;;4.41
13304;BMP280;6720;51.958;4.540;2022-12-07T07:15:50;101642.84;;;4.52
13304;BMP280;6720;51.958;4.540;2022-12-07T07:18:15;101642.97;;;4.58
13304;BMP280;6720;51.958;4.540;2022-12-07T07:20:41;101644.72;;;4.59
13304;BMP280;6720;51.958;4.540;2022-12-07T07:23:06;101646.38;;;4.57
13304;BMP280;6720;51.958;4.540;2022-12-07T07:25:32;101630.81;;;4.57
13304;BMP280;6720;51.958;4.540;2022-12-07T07:27:57;101633.44;;;4.59
13304;BMP280;6720;51.958;4.540;2022-12-07T07:30:23;101640.44;;;4.63
13304;BMP280;6720;51.958;4.540;2022-12-07T07:32:49;101634.34;;;4.59
13304;BMP280;6720;51.958;4.540;2022-12-07T07:35:14;101637.78;;;4.58
13304;BMP280;6720;51.958;4.540;2022-12-07T07:37:40;101635.78;;;4.45
13304;BMP280;6720;51.958;4.540;2022-12-07T07:40:07;101635.94;;;4.53
13304;BMP280;6720;51.958;4.540;2022-12-07T07:42:33;101648.09;;;4.55
13304;BMP280;6720;51.958;4.540;2022-12-07T07:44:58;101635.06;;;4.52
13304;BMP280;6720;51.958;4.540;2022-12-07T07:47:23;101653.34;;;4.60
13304;BMP280;6720;51.958;4.540;2022-12-07T07:49:49;101648.09;;;4.55
13304;BMP280;6720;51.958;4.540;2022-12-07T07:52:14;101645.47;;;4.54
13304;BMP280;6720;51.958;4.540;2022-12-07T07:54:40;101644.72;;;4.59
13304;BMP280;6720;51.958;4.540;2022-12-07T07:57:06;101645.59;;;4.61
13304;BMP280;6720;51.958;4.540;2022-12-07T07:59:33;101640.38;;;4.58
13304;BMP280;6720;51.958;4.540;2022-12-07T08:01:58;101646.44;;;4.60
13304;BMP280;6720;51.958;4.540;2022-12-07T08:04:24;101652.22;;;4.46
13304;BMP280;6720;51.958;4.540;2022-12-07T08:06:49;101653.25;;;4.54
13304;BMP280;6720;51.958;4.540;2022-12-07T08:09:15;101648.88;;;4.51
13304;BMP280;6720;51.958;4.540;2022-12-07T08:11:40;101649.75;;;4.53
13304;BMP280;6720;51.958;4.540;2022-12-07T08:14:05;101645.47;;;4.54
13304;BMP280;6720;51.958;4.540;2022-12-07T08:16:31;101648.31;;;4.67
13304;BMP280;6720;51.958;4.540;2022-12-07T08:18:56;101647.59;;;4.74
13304;BMP280;6720;51.958;4.540;2022-12-07T08:21:22;101640.69;;;4.73
13304;BMP280;6720;51.958;4.540;2022-12-07T08:23:47;101646.81;;;4.78
13304;BMP280;6720;51.958;4.540;2022-12-07T08:26:15;101647.91;;;4.89
13304;BMP280;6720;51.958;4.540;2022-12-07T08:28:41;101657.53;;;4.96
13304;BMP280;6720;51.958;4.540;2022-12-07T08:31:10;101641.72;;;4.84
13304;BMP280;6720;51.958;4.540;2022-12-07T08:33:36;101645.22;;;4.86
13304;BMP280;6720;51.958;4.540;2022-12-07T08:36:05;101666.28;;;5.01
13304;BMP280;6720;51.958;4.540;2022-12-07T08:38:31;101657.66;;;5.04
13304;BMP280;6720;51.958;4.540;2022-12-07T08:40:58;101658.66;;;5.10
13304;BMP280;6720;51.958;4.540;2022-12-07T08:43:24;101667.50;;;5.21
13304;BMP280;6720;51.958;4.540;2022-12-07T08:46:02;101653.69;;;5.21
13304;BMP280;6720;51.958;4.540;2022-12-07T08:48:29;101665.13;;;5.32
13304;BMP280;6720;51.958;4.540;2022-12-07T08:50:55;101655.66;;;5.35
13304;BMP280;6720;51.958;4.540;2022-12-07T08:53:21;101652.31;;;5.42
13304;BMP280;6720;51.958;4.540;2022-12-07T08:55:47;101654.34;;;5.60
13304;BMP280;6720;51.958;4.540;2022-12-07T08:58:13;101655.22;;;5.60
13304;BMP280;6720;51.958;4.540;2022-12-07T09:00:38;101660.59;;;5.72
13304;BMP280;6720;51.958;4.540;2022-12-07T09:03:04;101662.44;;;5.79
13304;BMP280;6720;51.958;4.540;2022-12-07T09:05:29;101655.63;;;5.84
13304;BMP280;6720;51.958;4.540;2022-12-07T09:07:58;101652.28;;;5.91
13304;BMP280;6720;51.958;4.540;2022-12-07T09:10:25;101655.84;;;5.99
13304;BMP280;6720;51.958;4.540;2022-12-07T09:12:52;101656.94;;;6.13
13304;BMP280;6720;51.958;4.540;2022-12-07T09:15:17;101647.78;;;6.41
13304;BMP280;6720;51.958;4.540;2022-12-07T09:17:43;101650.75;;;7.57
13304;BMP280;6720;51.958;4.540;2022-12-07T09:20:09;101649.81;;;9.04
13304;BMP280;6720;51.958;4.540;2022-12-07T09:22:34;101657.59;;;10.43
13304;BMP280;6720;51.958;4.540;2022-12-07T09:25:00;101649.88;;;9.65
13304;BMP280;6720;51.958;4.540;2022-12-07T09:27:26;101660.16;;;8.74
13304;BMP280;6720;51.958;4.540;2022-12-07T09:29:52;101644.19;;;8.20
13304;BMP280;6720;51.958;4.540;2022-12-07T09:32:18;101648.28;;;7.80
13304;BMP280;6720;51.958;4.540;2022-12-07T09:34:43;101636.63;;;7.31
13304;BMP280;6720;51.958;4.540;2022-12-07T09:37:09;101645.31;;;7.32
13304;BMP280;6720;51.958;4.540;2022-12-07T09:39:34;101643.50;;;7.23
13304;BMP280;6720;51.958;4.540;2022-12-07T09:42:03;101643.41;;;7.17
13304;BMP280;6720;51.958;4.540;2022-12-07T09:44:29;101644.88;;;6.88
13304;BMP280;6720;51.958;4.540;2022-12-07T09:46:55;101645.88;;;7.04
13304;BMP280;6720;51.958;4.540;2022-12-07T09:49:23;101633.75;;;7.03
13304;BMP280;6720;51.958;4.540;2022-12-07T09:52:01;101635.44;;;6.98
13304;BMP280;6720;51.958;4.540;2022-12-07T09:54:28;101641.00;;;7.37
13304;BMP280;6720;51.958;4.540;2022-12-07T09:56:54;101635.91;;;9.80
13304;BMP280;6720;51.958;4.540;2022-12-07T09:59:19;101634.00;;;11.85
13304;BMP280;6720;51.958;4.540;2022-12-07T10:01:47;101638.56;;;13.13
13304;BMP280;6720;51.958;4.540;2022-12-07T10:04:23;101640.88;;;13.87
13304;BMP280;6720;51.958;4.540;2022-12-07T10:06:50;101634.94;;;13.23
13304;BMP280;6720;51.958;4.540;2022-12-07T10:09:20;101634.72;;;12.75
13304;BMP280;6720;51.958;4.540;2022-12-07T10:12:10;101633.25;;;13.19
13304;BMP280;6720;51.958;4.540;2022-12-07T10:14:53;101628.69;;;13.30
13304;BMP280;6720;51.958;4.540;2022-12-07T10:17:37;101627.78;;;13.31
13304;BMP280;6720;51.958;4.540;2022-12-07T10:22:38;101627.69;;;10.94
13304;BMP280;6720;51.958;4.540;2022-12-07T10:25:21;101628.00;;;10.01
13304;BMP280;6720;51.958;4.540;2022-12-07T10:28:00;101621.13;;;9.65
13304;BMP280;6720;51.958;4.540;2022-12-07T10:30:27;101615.00;;;9.45
13304;BMP280;6720;51.958;4.540;2022-12-07T10:32:52;101615.00;;;9.35
13304;BMP280;6720;51.958;4.540;2022-12-07T10:35:21;101612.34;;;10.08
13304;BMP280;6720;51.958;4.540;2022-12-07T10:37:48;101600.53;;;11.07
13304;BMP280;6720;51.958;4.540;2022-12-07T10:40:35;101587.03;;;10.12
13304;BMP280;6720;51.958;4.540;2022-12-07T10:43:17;101580.13;;;9.69
13304;BMP280;6720;51.958;4.540;2022-12-07T10:46:25;101600.97;;;13.08
13304;BMP280;6720;51.958;4.540;2022-12-07T10:51:50;101597.09;;;10.99
13304;BMP280;6720;51.958;4.540;2022-12-07T10:54:38;101586.19;;;10.05
13304;BMP280;6720;51.958;4.540;2022-12-07T10:57:41;101586.13;;;10.28
13304;BMP280;6720;51.958;4.540;2022-12-07T11:00:17;101592.31;;;13.56
13304;BMP280;6720;51.958;4.540;2022-12-07T11:11:35;101565.59;;;11.05
13304;BMP280;6720;51.958;4.540;2022-12-07T11:25:23;101523.34;;;10.19
13304;BMP280;6720;51.958;4.540;2022-12-07T11:28:19;101531.19;;;10.22
13304;BMP280;6720;51.958;4.540;2022-12-07T11:33:35;101529.50;;;12.20
13304;BMP280;6720;51.958;4.540;2022-12-07T11:36:16;101522.81;;;11.95
13304;BMP280;6720;51.958;4.540;2022-12-07T11:38:50;101525.81;;;11.61
13304;BMP280;6720;51.958;4.540;2022-12-07T11:41:23;101528.78;;;11.23
13304;BMP280;6720;51.958;4.540;2022-12-07T11:46:51;101524.81;;;10.68
13304;BMP280;6720;51.958;4.540;2022-12-07T11:49:41;101532.88;;;10.35
13304;BMP280;6720;51.958;4.540;2022-12-07T11:52:43;101543.56;;;9.54
13304;BMP280;6720;51.958;4.540;2022-12-07T11:55:26;101550.53;;;9.10
13304;BMP280;6720;51.958;4.540;2022-12-07T11:58:01;101563.56;;;8.80
13304;BMP280;6720;51.958;4.540;2022-12-07T12:00:28;101562.66;;;8.60
13304;BMP280;6720;51.958;4.540;2022-12-07T12:03:04;101552.19;;;8.37
13304;BMP280;6720;51.958;4.540;2022-12-07T12:05:33;101539.75;;;7.87
13304;BMP280;6720;51.958;4.540;2022-12-07T12:08:15;101531.91;;;7.84
13304;BMP280;6720;51.958;4.540;2022-12-07T12:11:14;101536.28;;;7.88
13304;BMP280;6720;51.958;4.540;2022-12-07T12:14:11;101539.81;;;8.02
13304;BMP280;6720;51.958;4.540;2022-12-07T12:19:34;101519.06;;;8.21
13304;BMP280;6720;51.958;4.540;2022-12-07T12:22:12;101523.50;;;8.51
13304;BMP280;6720;51.958;4.540;2022-12-07T12:24:40;101518.34;;;8.78
13304;BMP280;6720;51.958;4.540;2022-12-07T12:27:09;101510.44;;;9.57
13304;BMP280;6720;51.958;4.540;2022-12-07T12:29:41;101521.16;;;11.85
13304;BMP280;6720;51.958;4.540;2022-12-07T12:32:21;101510.41;;;12.71
13304;BMP280;6720;51.958;4.540;2022-12-07T12:37:45;101508.25;;;13.49
13304;BMP280;6720;51.958;4.540;2022-12-07T12:42:50;101481.34;;;12.24
13304;BMP280;6720;51.958;4.540;2022-12-07T12:45:22;101490.97;;;11.48
13304;BMP280;6720;51.958;4.540;2022-12-07T12:48:02;101484.34;;;11.08
13304;BMP280;6720;51.958;4.540;2022-12-07T12:53:03;101478.59;;;10.64
13304;BMP280;6720;51.958;4.540;2022-12-07T13:00:43;101463.19;;;12.06
13304;BMP280;6720;51.958;4.540;2022-12-07T13:03:23;101463.28;;;11.17
13304;BMP280;6720;51.958;4.540;2022-12-07T13:08:50;101455.81;;;13.41
13304;BMP280;6720;51.958;4.540;2022-12-07T13:11:40;101461.91;;;14.28
13304;BMP280;6720;51.958;4.540;2022-12-07T13:14:35;101469.25;;;15.24
13304;BMP280;6720;51.958;4.540;2022-12-07T13:17:00;101471.91;;;15.23
13304;BMP280;6720;51.958;4.540;2022-12-07T13:25:12;101457.72;;;10.52
13304;BMP280;6720;51.958;4.540;2022-12-07T13:27:48;101443.03;;;10.28
13304;BMP280;6720;51.958;4.540;2022-12-07T13:30:20;101453.63;;;10.10
13304;BMP280;6720;51.958;4.540;2022-12-07T13:32:54;101437.13;;;9.87
13304;BMP280;6720;51.958;4.540;2022-12-07T13:35:31;101431.06;;;9.78
13304;BMP280;6720;51.958;4.540;2022-12-07T13:37:59;101428.44;;;9.78
13304;BMP280;6720;51.958;4.540;2022-12-07T13:40:26;101422.31;;;9.86
13304;BMP280;6720;51.958;4.540;2022-12-07T13:43:04;101417.97;;;9.82
13304;BMP280;6720;51.958;4.540;2022-12-07T13:45:32;101417.97;;;9.87
13304;BMP280;6720;51.958;4.540;2022-12-07T13:48:30;101418.00;;;9.78
13304;BMP280;6720;51.958;4.540;2022-12-07T13:50:58;101424.09;;;9.75
13304;BMP280;6720;51.958;4.540;2022-12-07T13:53:25;101418.03;;;9.73
13304;BMP280;6720;51.958;4.540;2022-12-07T13:55:58;101411.09;;;9.71
13304;BMP280;6720;51.958;4.540;2022-12-07T13:58:25;101407.66;;;9.51
13304;BMP280;6720;51.958;4.540;2022-12-07T14:00:51;101401.59;;;9.47
13304;BMP280;6720;51.958;4.540;2022-12-07T14:05:44;101404.19;;;9.49
13304;BMP280;6720;51.958;4.540;2022-12-07T14:10:38;101393.69;;;9.52
13304;BMP280;6720;51.958;4.540;2022-12-07T14:15:54;101398.09;;;9.51
13304;BMP280;6720;51.958;4.540;2022-12-07T14:18:27;101394.63;;;9.46
13304;BMP280;6720;51.958;4.540;2022-12-07T14:21:14;101382.47;;;9.29
13304;BMP280;6720;51.958;4.540;2022-12-07T14:23:41;101391.19;;;9.35
13304;BMP280;6720;51.958;4.540;2022-12-07T14:26:18;101399.03;;;9.31
13304;BMP280;6720;51.958;4.540;2022-12-07T14:28:44;101399.91;;;9.22
13304;BMP280;6720;51.958;4.540;2022-12-07T14:31:16;101388.63;;;9.16
13304;BMP280;6720;51.958;4.540;2022-12-07T14:33:42;101389.50;;;9.13
13304;BMP280;6720;51.958;4.540;2022-12-07T14:36:12;101386.88;;;9.09
13304;BMP280;6720;51.958;4.540;2022-12-07T14:38:38;101385.16;;;9.02
13304;BMP280;6720;51.958;4.540;2022-12-07T14:41:04;101372.09;;;8.99
13304;BMP280;6720;51.958;4.540;2022-12-07T14:43:50;101375.59;;;8.95
13304;BMP280;6720;51.958;4.540;2022-12-07T14:46:15;101371.25;;;8.94
13304;BMP280;6720;51.958;4.540;2022-12-07T14:48:41;101367.78;;;8.86
13304;BMP280;6720;51.958;4.540;2022-12-07T14:51:08;101334.75;;;8.67
13304;BMP280;6720;51.958;4.540;2022-12-07T14:53:41;101367.81;;;8.77
13304;BMP280;6720;51.958;4.540;2022-12-07T14:56:07;101364.31;;;8.73
13304;BMP280;6720;51.958;4.540;2022-12-07T14:58:33;101340.84;;;8.64
13304;BMP280;6720;51.958;4.540;2022-12-07T15:00:59;101353.88;;;8.70
13304;BMP280;6720;51.958;4.540;2022-12-07T15:03:24;101357.34;;;8.68
13304;BMP280;6720;51.958;4.540;2022-12-07T15:05:50;101368.66;;;8.62
13304;BMP280;6720;51.958;4.540;2022-12-07T15:08:15;101366.06;;;8.49
13304;BMP280;6720;51.958;4.540;2022-12-07T15:10:41;101379.97;;;8.43
13304;BMP280;6720;51.958;4.540;2022-12-07T15:13:07;101364.31;;;8.31
13304;BMP280;6720;51.958;4.540;2022-12-07T15:15:52;101367.78;;;8.26
13304;BMP280;6720;51.958;4.540;2022-12-07T15:18:18;101368.69;;;8.26
13304;BMP280;6720;51.958;4.540;2022-12-07T15:20:44;101361.69;;;8.19
13304;BMP280;6720;51.958;4.540;2022-12-07T15:23:10;101359.94;;;8.14
13304;BMP280;6720;51.958;4.540;2022-12-07T15:25:36;101346.88;;;8.05
13304;BMP280;6720;51.958;4.540;2022-12-07T15:28:01;101350.34;;;7.98
13304;BMP280;6720;51.958;4.540;2022-12-07T15:30:27;101347.72;;;7.81
13304;BMP280;6720;51.958;4.540;2022-12-07T15:32:52;101339.00;;;7.79
13304;BMP280;6720;51.958;4.540;2022-12-07T15:35:19;101335.50;;;7.66
13304;BMP280;6720;51.958;4.540;2022-12-07T15:37:45;101339.88;;;7.68
13304;BMP280;6720;51.958;4.540;2022-12-07T15:40:10;101336.34;;;7.62
13304;BMP280;6720;51.958;4.540;2022-12-07T15:42:36;101332.00;;;7.58
13304;BMP280;6720;51.958;4.540;2022-12-07T15:45:04;101333.75;;;7.58
13304;BMP280;6720;51.958;4.540;2022-12-07T15:47:34;101325.91;;;7.50
13304;BMP280;6720;51.958;4.540;2022-12-07T15:50:02;101325.91;;;7.49
13304;BMP280;6720;51.958;4.540;2022-12-07T15:52:28;101331.13;;;7.53
13304;BMP280;6720;51.958;4.540;2022-12-07T15:54:53;101337.19;;;7.55
13304;BMP280;6720;51.958;4.540;2022-12-07T15:57:19;101332.00;;;7.54
13304;BMP280;6720;51.958;4.540;2022-12-07T15:59:44;101328.53;;;7.55
13304;BMP280;6720;51.958;4.540;2022-12-07T16:02:10;101338.06;;;7.51
13304;BMP280;6720;51.958;4.540;2022-12-07T16:04:36;101327.63;;;7.51
13304;BMP280;6720;51.958;4.540;2022-12-07T16:07:02;101328.53;;;7.53